EFTP/TMP METAR and TAF weather

Enter ICAO airport designator
Station Type Date Time Source
EFTP METAR 2024/04/17 18:50 UTC NOAA

EFTP 171850Z AUTO 05008KT 9999 OVC031 M00/M06 Q1009


Station Type Date Time Source
EFTP Decoded METAR 2024/04/17 18:50 UTC NOAA

Tampere / Pirkkala, Finland (EFTP) 61-25N 023-35E 112M
Apr 17, 2024 - 02:50 PM EDT / 2024.04.17 1850 UTC
Wind: from the NE (050 degrees) at 9 MPH (8 KT):0
Visibility: greater than 7 mile(s):0
Sky conditions: overcast
Temperature: 32 F (0 C)
Windchill: 24 F (-4 C):1
Dew Point: 21 F (-6 C)
Relative Humidity: 63%
Pressure (altimeter): 29.80 in. Hg (1009 hPa)
ob: EFTP 171850Z AUTO 05008KT 9999 OVC031 M00/M06 Q1009
cycle: 19

Station Type Date Time Source
EFTP TAF 2024/04/17 18:42 UTC NOAA